Time;durP1;ratioP1;P1;durP2;ratioP2;P2;SDS_P1;SDS_P2;PMS_P1;PMS_P2;Temp;Humidity;BMP_temperature;BMP_pressure;BME280_temperature;BME280_humidity;BME280_pressure;Samples;Min_cycle;Max_cycle;Signal;HPM_P1;HPM_P2
2023/04/30 00:02:05;;;;;;;20.73;12.77;;;8.50;99.90;;;;;;4955188;28;38452;-81
2023/04/30 00:04:50;;;;;;;19.13;11.87;;;8.50;99.90;;;;;;4962128;28;40040;-82
2023/04/30 00:07:28;;;;;;;22.17;12.47;;;8.50;99.90;;;;;;4957243;28;39034;-82
2023/04/30 00:10:02;;;;;;;20.83;12.90;;;8.50;99.90;;;;;;4934132;28;38055;-81
2023/04/30 00:12:40;;;;;;;19.27;11.87;;;8.50;99.90;;;;;;4928633;28;39468;-81
2023/04/30 00:45:23;;;;;;;26.40;14.73;;;7.80;99.90;;;;;;5345013;23;20036;-81
2023/04/30 00:48:18;;;;;;;22.37;13.90;;;7.80;99.90;;;;;;4942315;28;38317;-81
2023/04/30 00:51:02;;;;;;;25.00;14.57;;;7.80;99.90;;;;;;4909449;28;50166;-82
2023/04/30 00:53:36;;;;;;;23.33;14.80;;;7.80;99.90;;;;;;4915602;28;48919;-82
2023/04/30 00:56:24;;;;;;;25.70;14.33;;;7.80;99.90;;;;;;4931045;28;40008;-82
2023/04/30 00:59:19;;;;;;;24.97;14.53;;;7.80;99.90;;;;;;4947605;28;38665;-81
2023/04/30 06:36:55;;;;;;;19.87;13.40;;;9.40;99.90;;;;;;5427088;23;20040;-82
2023/04/30 06:39:24;;;;;;;16.10;12.77;;;9.40;99.90;;;;;;5067811;23;39627;-82
2023/04/30 06:42:08;;;;;;;19.80;13.40;;;9.50;99.90;;;;;;4932706;28;38823;-82
2023/04/30 06:44:34;;;;;;;20.67;13.30;;;9.60;99.90;;;;;;4934835;28;50257;-78
2023/04/30 07:42:43;;;;;;;9.85;8.00;;;12.80;99.90;;;;;;5766028;23;20551;-81
2023/04/30 07:45:11;;;;;;;11.70;8.27;;;13.10;99.90;;;;;;4928534;28;36578;-81
2023/04/30 07:47:38;;;;;;;9.85;8.13;;;13.20;99.90;;;;;;4920502;28;39378;-82
2023/04/30 07:50:06;;;;;;;11.18;8.27;;;13.10;99.90;;;;;;4914926;29;37014;-82
2023/04/30 07:52:32;;;;;;;10.75;8.20;;;13.30;99.90;;;;;;4910540;29;46941;-83
2023/04/30 07:54:58;;;;;;;11.60;8.10;;;13.50;99.90;;;;;;4909954;29;37209;-83
2023/04/30 07:57:27;;;;;;;10.32;7.65;;;13.70;99.90;;;;;;4911106;29;38653;-86
2023/04/30 07:59:54;;;;;;;11.63;7.53;;;14.00;99.90;;;;;;4917987;28;38239;-85
2023/04/30 08:02:20;;;;;;;7.95;7.15;;;14.10;99.90;;;;;;4911576;29;37093;-87
2023/04/30 08:04:46;;;;;;;7.68;6.85;;;14.30;99.90;;;;;;4918124;28;37241;-86
2023/04/30 08:07:14;;;;;;;7.82;7.03;;;14.20;99.90;;;;;;4910300;29;38787;-89
2023/04/30 08:09:40;;;;;;;9.60;6.97;;;14.30;99.90;;;;;;4912990;29;36832;-87
2023/04/30 08:12:08;;;;;;;8.45;7.25;;;14.40;99.90;;;;;;4903746;29;37930;-83
2023/04/30 08:14:34;;;;;;;9.63;6.50;;;14.70;99.90;;;;;;4909294;29;37491;-88
2023/04/30 08:17:01;;;;;;;10.43;7.60;;;14.70;99.90;;;;;;4907749;29;38000;-88
2023/04/30 08:19:28;;;;;;;9.38;7.18;;;14.40;99.90;;;;;;4904330;29;47318;-88
2023/04/30 08:21:54;;;;;;;9.30;6.60;;;14.50;99.90;;;;;;4908391;29;37150;-90
2023/04/30 08:24:20;;;;;;;10.23;7.20;;;14.70;99.90;;;;;;4910751;29;36212;-88
2023/04/30 08:26:46;;;;;;;9.73;6.68;;;14.70;99.90;;;;;;4912286;28;39605;-88
2023/04/30 08:29:12;;;;;;;9.77;6.68;;;14.60;99.90;;;;;;4907204;29;37489;-88
2023/04/30 08:31:38;;;;;;;9.27;6.15;;;14.90;99.90;;;;;;4906995;29;36753;-88
2023/04/30 08:34:05;;;;;;;7.15;5.68;;;15.00;99.90;;;;;;4903077;28;37970;-87
2023/04/30 08:36:31;;;;;;;8.77;5.75;;;15.30;99.90;;;;;;4905120;29;38078;-77
2023/04/30 08:38:57;;;;;;;9.15;5.65;;;15.40;99.90;;;;;;4914358;29;37542;-87
2023/04/30 08:41:34;;;;;;;7.25;4.82;;;15.60;99.90;;;;;;4906567;29;38061;-88
2023/04/30 08:44:02;;;;;;;9.23;5.50;;;15.80;99.90;;;;;;4910796;28;37974;-86
2023/04/30 08:46:31;;;;;;;5.80;5.13;;;15.60;99.90;;;;;;4906968;29;47418;-87
2023/04/30 08:48:57;;;;;;;7.55;4.97;;;15.70;99.90;;;;;;4906255;29;38498;-83
2023/04/30 08:51:25;;;;;;;8.50;5.03;;;15.90;99.90;;;;;;4918105;28;38709;-84
2023/04/30 08:53:54;;;;;;;5.60;5.05;;;16.10;99.90;;;;;;4914329;29;36386;-80
2023/04/30 08:56:20;;;;;;;7.28;5.30;;;16.30;99.90;;;;;;4920948;29;37634;-78
2023/04/30 08:58:46;;;;;;;7.43;5.72;;;16.50;99.90;;;;;;4917897;28;37543;-82
2023/04/30 09:01:13;;;;;;;5.78;5.07;;;16.70;99.90;;;;;;4907197;29;38113;-87
2023/04/30 09:03:39;;;;;;;8.43;5.90;;;16.40;99.90;;;;;;4908755;29;37146;-82
2023/04/30 09:06:05;;;;;;;7.88;5.13;;;16.50;99.90;;;;;;4907955;28;37973;-87
2023/04/30 09:08:45;;;;;;;5.35;4.80;;;16.60;99.90;;;;;;4907013;29;37407;-86
2023/04/30 09:11:26;;;;;;;6.25;4.78;;;16.90;99.90;;;;;;4906081;29;36998;-79
2023/04/30 09:13:56;;;;;;;5.47;3.97;;;16.60;99.90;;;;;;4904243;29;36879;-86
2023/04/30 09:16:23;;;;;;;5.00;4.28;;;16.90;99.90;;;;;;4911992;29;40338;-86
2023/04/30 09:18:50;;;;;;;4.95;4.28;;;16.70;99.90;;;;;;4906695;29;38098;-86
2023/04/30 09:21:16;;;;;;;6.30;4.10;;;16.50;99.90;;;;;;4895541;29;37419;-86
2023/04/30 09:24:00;;;;;;;7.22;4.85;;;16.50;99.90;;;;;;4907356;29;38386;-86
2023/04/30 09:26:35;;;;;;;6.57;4.35;;;16.80;99.90;;;;;;4912804;29;37792;-85
2023/04/30 09:29:06;;;;;;;7.80;4.72;;;17.00;99.90;;;;;;4909070;28;38177;-85
2023/04/30 09:31:34;;;;;;;6.20;4.77;;;17.40;99.90;;;;;;4914276;28;48810;-86
2023/04/30 09:34:00;;;;;;;5.63;4.40;;;17.70;99.90;;;;;;4911041;29;37434;-84
2023/04/30 09:36:27;;;;;;;5.32;4.07;;;17.40;99.90;;;;;;4907954;29;39403;-84
2023/04/30 09:38:53;;;;;;;6.72;4.45;;;17.20;99.90;;;;;;4905108;29;37244;-83
2023/04/30 09:41:27;;;;;;;6.38;4.20;;;17.30;99.90;;;;;;4909946;29;38852;-83
2023/04/30 09:43:54;;;;;;;5.28;4.30;;;17.50;99.90;;;;;;4913319;29;36521;-84
2023/04/30 09:46:28;;;;;;;4.15;3.78;;;17.70;99.90;;;;;;4909005;29;37597;-84
2023/04/30 09:49:00;;;;;;;5.63;3.95;;;18.00;99.90;;;;;;4911167;28;38881;-83
2023/04/30 09:51:27;;;;;;;6.32;4.18;;;17.90;99.90;;;;;;4907592;29;37017;-83
2023/04/30 09:53:54;;;;;;;4.85;3.58;;;18.30;99.90;;;;;;4911323;29;37438;-84
2023/04/30 09:56:25;;;;;;;5.85;3.60;;;18.10;99.90;;;;;;4899824;29;39550;-83
2023/04/30 09:58:53;;;;;;;3.70;3.33;;;17.60;99.90;;;;;;4919842;29;38350;-83
2023/04/30 10:01:26;;;;;;;3.35;3.05;;;17.50;99.90;;;;;;4914378;28;37024;-84
2023/04/30 10:03:52;;;;;;;2.88;2.20;;;17.60;99.90;;;;;;4907180;29;37188;-83
2023/04/30 10:06:20;;;;;;;2.40;1.83;;;17.80;99.90;;;;;;4900969;29;39879;-85
2023/04/30 10:08:50;;;;;;;2.50;2.17;;;18.00;99.90;;;;;;4903217;29;37317;-82
2023/04/30 10:11:22;;;;;;;2.75;2.45;;;18.20;99.90;;;;;;4907007;29;37778;-85
2023/04/30 10:14:06;;;;;;;4.93;2.92;;;17.50;99.90;;;;;;4909227;29;36709;-83
2023/04/30 10:16:54;;;;;;;3.33;3.03;;;18.10;99.90;;;;;;4898821;29;48552;-84
2023/04/30 10:19:25;;;;;;;3.45;3.15;;;18.40;99.90;;;;;;4903530;29;38362;-83
2023/04/30 10:21:51;;;;;;;3.72;2.70;;;18.60;99.90;;;;;;4905146;29;38280;-84
2023/04/30 10:24:19;;;;;;;2.70;2.33;;;18.80;99.90;;;;;;4907172;29;36092;-82
2023/04/30 10:26:47;;;;;;;4.10;2.08;;;19.30;99.90;;;;;;4904665;29;38799;-82
2023/04/30 10:29:14;;;;;;;6.13;2.50;;;19.10;99.90;;;;;;4918801;29;37243;-82
2023/04/30 10:31:43;;;;;;;2.47;2.25;;;19.20;99.90;;;;;;4904398;29;37147;-80
2023/04/30 10:34:27;;;;;;;4.85;2.70;;;19.20;99.90;;;;;;4902868;29;40212;-78
2023/04/30 10:37:03;;;;;;;2.40;2.15;;;19.00;99.90;;;;;;4904039;29;38927;-76
2023/04/30 10:39:30;;;;;;;4.05;2.72;;;19.10;99.90;;;;;;4921539;29;46906;-76
2023/04/30 10:42:08;;;;;;;2.38;2.10;;;19.30;99.90;;;;;;4898623;29;37849;-77
2023/04/30 10:44:39;;;;;;;2.70;2.30;;;19.50;99.90;;;;;;4909837;29;46641;-80
2023/04/30 10:47:06;;;;;;;4.10;2.90;;;19.80;99.90;;;;;;4918911;29;37450;-75
2023/04/30 10:49:32;;;;;;;1.98;1.70;;;19.70;99.90;;;;;;4901528;29;38380;-82
2023/04/30 10:52:00;;;;;;;2.25;1.52;;;19.60;99.90;;;;;;4902301;29;38597;-84
2023/04/30 10:54:28;;;;;;;2.10;1.77;;;19.70;99.90;;;;;;4893461;29;36406;-83
2023/04/30 10:57:10;;;;;;;2.45;2.08;;;20.10;99.90;;;;;;4894383;28;38153;-84
2023/04/30 10:59:36;;;;;;;3.83;2.47;;;20.30;99.90;;;;;;4900989;29;48454;-86
2023/04/30 11:02:02;;;;;;;3.95;2.47;;;20.40;99.90;;;;;;4915767;29;38474;-83
2023/04/30 11:04:29;;;;;;;4.95;3.00;;;20.10;99.90;;;;;;4921834;29;36348;-85
2023/04/30 11:07:09;;;;;;;2.58;2.38;;;20.10;99.90;;;;;;4914547;29;38834;-87
2023/04/30 11:09:40;;;;;;;2.70;2.40;;;20.30;99.90;;;;;;4899863;29;47575;-84
2023/04/30 11:12:38;;;;;;;4.38;2.90;;;20.70;99.90;;;;;;4901644;29;37078;-84
2023/04/30 11:15:32;;;;;;;3.17;2.47;;;20.20;99.90;;;;;;4924446;29;36305;-86
2023/04/30 11:17:58;;;;;;;2.38;2.17;;;20.60;99.90;;;;;;4898580;29;40004;-86
2023/04/30 11:20:25;;;;;;;2.13;1.85;;;20.40;99.90;;;;;;4909636;29;38616;-87
2023/04/30 11:23:07;;;;;;;1.90;1.80;;;20.80;99.90;;;;;;4910115;29;37007;-84
2023/04/30 11:25:40;;;;;;;;;;;21.00;99.90;;;;;;4910955;29;47287;-83
2023/04/30 11:28:06;;;;;;;2.15;1.27;;;21.40;99.90;;;;;;4897910;29;38061;-85
2023/04/30 11:30:34;;;;;;;1.70;1.60;;;21.20;99.90;;;;;;4896642;29;38434;-85
2023/04/30 11:33:01;;;;;;;4.45;2.35;;;21.60;99.90;;;;;;4905907;29;36915;-85
2023/04/30 11:35:27;;;;;;;2.72;2.10;;;21.40;99.90;;;;;;4912334;28;48644;-85
2023/04/30 11:37:58;;;;;;;2.35;2.15;;;21.60;99.90;;;;;;4908072;29;38717;-87
2023/04/30 11:40:37;;;;;;;2.10;2.00;;;21.20;99.90;;;;;;4924740;28;37090;-86
2023/04/30 11:43:03;;;;;;;2.97;2.20;;;21.00;99.90;;;;;;4910982;29;37430;-86
2023/04/30 11:45:29;;;;;;;2.13;1.88;;;20.60;99.90;;;;;;4908956;29;37449;-86
2023/04/30 11:47:56;;;;;;;2.17;1.90;;;20.50;99.90;;;;;;4910694;29;38537;-86
2023/04/30 11:50:28;;;;;;;2.80;2.60;;;20.00;99.90;;;;;;4901296;29;39506;-80
2023/04/30 11:53:02;;;;;;;2.47;2.28;;;19.50;99.90;;;;;;4906907;29;36952;-84
2023/04/30 11:55:30;;;;;;;2.33;2.13;;;19.30;99.90;;;;;;4897885;29;49541;-81
2023/04/30 11:57:58;;;;;;;2.83;2.60;;;20.00;99.90;;;;;;4913454;28;37576;-82
2023/04/30 12:00:27;;;;;;;3.20;2.90;;;20.70;99.90;;;;;;4887423;29;37258;-84
2023/04/30 12:02:54;;;;;;;4.95;3.17;;;21.10;99.90;;;;;;4909892;29;38367;-86
2023/04/30 12:05:22;;;;;;;4.15;3.42;;;21.40;99.90;;;;;;4911505;28;37828;-83
2023/04/30 12:07:50;;;;;;;3.90;3.28;;;21.20;99.90;;;;;;4901189;29;37367;-81
2023/04/30 12:10:20;;;;;;;4.20;3.25;;;20.90;99.90;;;;;;4899791;28;37586;-84
2023/04/30 12:12:51;;;;;;;3.92;3.20;;;20.60;99.90;;;;;;4923362;29;37029;-83
2023/04/30 12:15:33;;;;;;;2.72;2.53;;;20.30;99.90;;;;;;4913098;29;36547;-84
2023/04/30 12:18:09;;;;;;;2.40;2.20;;;20.70;99.90;;;;;;4906047;29;36283;-84
2023/04/30 12:20:36;;;;;;;2.50;2.30;;;20.70;99.90;;;;;;4902888;29;48673;-85
2023/04/30 12:23:02;;;;;;;2.88;2.58;;;20.60;99.90;;;;;;4908698;29;37655;-84
2023/04/30 12:25:28;;;;;;;2.55;2.25;;;20.70;99.90;;;;;;4902256;28;37985;-85
2023/04/30 12:27:57;;;;;;;2.33;1.95;;;21.30;99.90;;;;;;4903633;29;38900;-84
2023/04/30 12:30:25;;;;;;;2.90;2.60;;;21.60;99.90;;;;;;4905596;28;38657;-83
2023/04/30 12:32:53;;;;;;;4.88;2.45;;;21.60;99.90;;;;;;4910918;29;38015;-84
2023/04/30 12:35:23;;;;;;;3.22;2.75;;;21.40;99.90;;;;;;4909978;29;36052;-84
2023/04/30 12:38:07;;;;;;;3.50;3.20;;;21.20;99.90;;;;;;4908504;29;39454;-86
2023/04/30 12:40:33;;;;;;;4.93;3.20;;;21.00;99.90;;;;;;4910729;29;47103;-84
2023/04/30 12:43:01;;;;;;;4.28;3.03;;;21.40;99.90;;;;;;4903865;29;37166;-84
2023/04/30 12:45:51;;;;;;;2.67;2.47;;;21.00;99.90;;;;;;4907493;29;48679;-86
2023/04/30 12:48:27;;;;;;;3.45;2.75;;;20.70;99.90;;;;;;4903966;28;40322;-83
2023/04/30 12:50:54;;;;;;;3.50;3.20;;;20.70;99.90;;;;;;4904892;29;38582;-81
2023/04/30 12:53:20;;;;;;;4.03;3.72;;;20.70;99.90;;;;;;4918542;29;35615;-81
2023/04/30 12:56:10;;;;;;;4.10;3.70;;;21.10;99.90;;;;;;4902088;29;36812;-82
2023/04/30 12:58:38;;;;;;;4.15;3.75;;;21.70;99.90;;;;;;4895780;29;46982;-83
2023/04/30 13:01:10;;;;;;;5.25;3.92;;;21.40;99.90;;;;;;4903506;28;38687;-83
2023/04/30 13:03:37;;;;;;;7.85;3.90;;;21.20;99.90;;;;;;4906690;29;38379;-84
2023/04/30 13:06:03;;;;;;;4.50;4.05;;;21.60;99.90;;;;;;4906712;29;38084;-83
2023/04/30 13:08:29;;;;;;;4.03;3.53;;;21.50;99.90;;;;;;4909144;29;39958;-84
2023/04/30 13:10:56;;;;;;;4.05;3.40;;;21.40;99.90;;;;;;4906662;28;38197;-84
2023/04/30 13:13:22;;;;;;;7.13;4.50;;;21.40;99.90;;;;;;4905763;29;36796;-83
2023/04/30 13:15:48;;;;;;;5.13;3.58;;;21.70;99.90;;;;;;4899935;29;34780;-85
2023/04/30 13:18:15;;;;;;;5.78;4.00;;;21.30;99.90;;;;;;4900955;29;39177;-84
2023/04/30 13:20:42;;;;;;;4.22;3.80;;;21.20;99.90;;;;;;4906173;29;37925;-84
2023/04/30 13:23:09;;;;;;;6.85;3.58;;;21.10;99.90;;;;;;4906062;29;38673;-84
2023/04/30 13:25:35;;;;;;;3.60;2.60;;;21.50;99.90;;;;;;4908153;29;36050;-83
2023/04/30 13:28:01;;;;;;;5.95;3.20;;;21.70;99.90;;;;;;4904107;29;39190;-82
2023/04/30 13:30:28;;;;;;;3.08;2.58;;;21.20;99.90;;;;;;4904780;29;47283;-84
2023/04/30 13:32:54;;;;;;;3.92;3.33;;;21.10;99.90;;;;;;4919671;28;38595;-84
2023/04/30 13:35:20;;;;;;;4.78;3.53;;;21.30;99.90;;;;;;4904071;28;36713;-84
2023/04/30 13:37:51;;;;;;;3.00;2.70;;;20.80;99.90;;;;;;4907156;29;37806;-84
2023/04/30 13:40:20;;;;;;;4.82;3.40;;;21.20;99.90;;;;;;4904446;29;37127;-83
2023/04/30 13:42:47;;;;;;;2.95;2.65;;;21.00;99.90;;;;;;4907861;29;37041;-83
2023/04/30 13:45:14;;;;;;;4.03;3.13;;;20.40;99.90;;;;;;4904737;29;37349;-85
2023/04/30 13:47:41;;;;;;;2.65;2.28;;;20.20;99.90;;;;;;4909315;29;38680;-86
2023/04/30 13:50:10;;;;;;;4.93;3.28;;;20.70;99.90;;;;;;4905016;29;38038;-84
2023/04/30 13:52:37;;;;;;;11.13;2.72;;;21.60;99.90;;;;;;4907458;29;36352;-84
2023/04/30 13:55:03;;;;;;;4.13;2.78;;;21.80;99.90;;;;;;4904663;28;36822;-84
2023/04/30 13:57:31;;;;;;;2.88;2.53;;;22.10;99.90;;;;;;4903622;29;38189;-87
2023/04/30 13:59:57;;;;;;;2.50;2.30;;;21.30;99.90;;;;;;4897436;29;39982;-82
2023/04/30 14:02:26;;;;;;;2.78;2.45;;;20.80;99.90;;;;;;4905788;29;36597;-83
2023/04/30 14:04:53;;;;;;;4.85;3.10;;;20.60;99.90;;;;;;4900812;29;36267;-84
2023/04/30 14:07:20;;;;;;;2.90;2.50;;;21.30;99.90;;;;;;4912597;28;38078;-84
2023/04/30 14:09:46;;;;;;;2.75;2.53;;;21.60;99.90;;;;;;4909625;29;37663;-84
2023/04/30 14:12:12;;;;;;;2.85;2.35;;;21.90;99.90;;;;;;4918406;28;37098;-84
2023/04/30 14:14:39;;;;;;;3.30;3.00;;;21.90;99.90;;;;;;4906441;29;37378;-86
2023/04/30 14:17:05;;;;;;;2.30;2.10;;;21.10;99.90;;;;;;4903062;29;39297;-85
2023/04/30 14:19:31;;;;;;;3.03;2.38;;;20.90;99.90;;;;;;4908726;28;37955;-83
2023/04/30 14:21:57;;;;;;;2.97;2.67;;;20.90;99.90;;;;;;4907810;29;38119;-84
2023/04/30 14:24:24;;;;;;;2.13;1.92;;;20.90;99.90;;;;;;4907468;28;37323;-84
2023/04/30 14:26:50;;;;;;;2.67;2.45;;;21.10;99.90;;;;;;4907161;29;38368;-84
2023/04/30 14:29:18;;;;;;;3.33;2.78;;;21.20;99.90;;;;;;4908770;29;39496;-83
2023/04/30 14:31:45;;;;;;;2.88;2.50;;;21.60;99.90;;;;;;4910012;29;38358;-84
2023/04/30 14:34:12;;;;;;;2.00;1.60;;;21.70;99.90;;;;;;4907290;28;36233;-84
2023/04/30 14:36:38;;;;;;;2.38;2.17;;;21.80;99.90;;;;;;4908901;29;38140;-85
2023/04/30 14:39:05;;;;;;;1.77;1.67;;;21.00;99.90;;;;;;4906288;28;37564;-83
2023/04/30 14:41:35;;;;;;;2.33;1.80;;;20.20;99.90;;;;;;4898539;29;37025;-83
2023/04/30 14:44:02;;;;;;;2.63;1.60;;;20.20;99.90;;;;;;4908518;29;37223;-85
2023/04/30 14:46:28;;;;;;;4.85;1.85;;;20.70;99.90;;;;;;4900652;29;47218;-83
2023/04/30 14:48:54;;;;;;;2.38;1.48;;;20.80;99.90;;;;;;4919138;29;35530;-88
2023/04/30 14:51:20;;;;;;;3.92;1.60;;;21.20;99.90;;;;;;4916005;28;39264;-85
2023/04/30 14:53:46;;;;;;;2.90;2.08;;;21.70;99.90;;;;;;4930448;28;36027;-89
2023/04/30 14:56:13;;;;;;;2.30;2.10;;;21.70;99.90;;;;;;4903240;29;37681;-81
2023/04/30 14:58:39;;;;;;;2.55;2.00;;;21.00;99.90;;;;;;4904852;29;37679;-81
2023/04/30 15:01:05;;;;;;;3.40;2.50;;;20.80;99.90;;;;;;4914385;28;37963;-78
2023/04/30 15:03:31;;;;;;;2.00;1.58;;;20.70;99.90;;;;;;4901413;29;36139;-78
2023/04/30 15:05:57;;;;;;;2.08;1.45;;;20.90;99.90;;;;;;4904781;29;37829;-81
2023/04/30 15:08:24;;;;;;;2.55;2.08;;;21.40;99.90;;;;;;4918613;28;38677;-79
2023/04/30 15:10:50;;;;;;;2.30;1.58;;;21.60;99.90;;;;;;4899988;29;37111;-81
2023/04/30 15:13:17;;;;;;;2.90;2.05;;;21.30;99.90;;;;;;4901570;29;37049;-81
2023/04/30 15:15:45;;;;;;;2.70;1.17;;;21.10;99.90;;;;;;4905779;29;40651;-82
2023/04/30 15:18:13;;;;;;;1.50;1.40;;;21.70;99.90;;;;;;4900777;29;38748;-81
2023/04/30 15:20:39;;;;;;;2.22;1.63;;;21.90;99.90;;;;;;4900841;29;36835;-83
2023/04/30 15:23:05;;;;;;;3.78;1.83;;;22.10;99.90;;;;;;4906097;29;36089;-82
2023/04/30 15:25:31;;;;;;;1.95;1.10;;;21.70;99.90;;;;;;4919702;28;37870;-82
2023/04/30 15:27:58;;;;;;;1.40;1.30;;;21.40;99.90;;;;;;4906874;29;38367;-83
2023/04/30 15:30:24;;;;;;;2.05;1.58;;;21.10;99.90;;;;;;4903540;29;38363;-83
2023/04/30 15:32:50;;;;;;;2.17;1.75;;;20.40;99.90;;;;;;4908063;29;37694;-81
2023/04/30 15:35:16;;;;;;;1.30;1.20;;;20.00;99.90;;;;;;4903914;29;39103;-81
2023/04/30 15:37:43;;;;;;;2.78;1.65;;;20.10;99.90;;;;;;4906154;28;37105;-80
2023/04/30 15:40:13;;;;;;;2.15;1.52;;;20.30;99.90;;;;;;4906855;28;37671;-83
2023/04/30 15:42:40;;;;;;;2.25;1.20;;;20.20;99.90;;;;;;4901274;29;37086;-82
2023/04/30 15:45:07;;;;;;;2.13;1.60;;;20.20;99.90;;;;;;4899697;28;38489;-83
2023/04/30 15:47:34;;;;;;;1.60;1.40;;;20.00;99.90;;;;;;4908095;28;39910;-83
2023/04/30 15:50:00;;;;;;;1.50;1.23;;;19.90;99.90;;;;;;4904433;29;38838;-85
2023/04/30 15:52:26;;;;;;;3.35;1.63;;;19.70;99.90;;;;;;4891265;29;37357;-83
2023/04/30 15:54:58;;;;;;;2.15;1.50;;;19.60;99.90;;;;;;4893924;28;38015;-84
2023/04/30 15:57:24;;;;;;;2.28;1.10;;;19.90;99.90;;;;;;4884203;28;38438;-83
2023/04/30 15:59:51;;;;;;;1.67;1.25;;;20.30;99.90;;;;;;4894445;29;38514;-83
2023/04/30 16:02:17;;;;;;;1.67;1.35;;;20.40;99.90;;;;;;4900192;29;36974;-84
2023/04/30 16:04:43;;;;;;;2.83;1.40;;;20.30;99.90;;;;;;4900312;29;37127;-83
2023/04/30 16:07:09;;;;;;;2.08;1.52;;;19.90;99.90;;;;;;4899304;29;37873;-82
2023/04/30 16:09:35;;;;;;;1.88;1.38;;;19.80;99.90;;;;;;4897792;29;37099;-82
2023/04/30 16:12:01;;;;;;;2.75;1.50;;;19.70;99.90;;;;;;4896863;28;38900;-81
2023/04/30 16:14:28;;;;;;;3.97;1.73;;;19.80;99.90;;;;;;4913272;28;38467;-80
2023/04/30 16:16:54;;;;;;;2.25;1.85;;;19.90;99.90;;;;;;4899227;29;38687;-79
2023/04/30 16:19:20;;;;;;;2.03;1.45;;;19.60;99.90;;;;;;4899212;28;38541;-78
2023/04/30 16:21:46;;;;;;;1.45;1.17;;;19.50;99.90;;;;;;4895595;29;37908;-82
2023/04/30 16:24:14;;;;;;;2.00;1.65;;;19.60;99.90;;;;;;4897370;28;39084;-82
2023/04/30 16:26:40;;;;;;;2.22;1.40;;;19.40;99.90;;;;;;4897263;29;38116;-83
2023/04/30 16:29:06;;;;;;;2.70;1.40;;;19.70;99.90;;;;;;4899610;29;38243;-81
2023/04/30 16:31:32;;;;;;;2.85;1.10;;;19.70;99.90;;;;;;4899648;29;35735;-83
2023/04/30 16:33:58;;;;;;;1.48;1.00;;;19.70;99.90;;;;;;4913685;28;38496;-83
2023/04/30 16:36:25;;;;;;;1.33;0.93;;;19.70;99.90;;;;;;4891908;28;37698;-82
2023/04/30 16:38:51;;;;;;;2.70;0.90;;;19.60;99.90;;;;;;4897803;29;38211;-82
2023/04/30 16:41:17;;;;;;;1.52;0.70;;;19.50;99.90;;;;;;4898308;28;37842;-81
2023/04/30 16:43:43;;;;;;;1.65;0.70;;;19.60;99.90;;;;;;4897566;29;38696;-84
2023/04/30 16:46:10;;;;;;;1.92;0.85;;;19.60;99.90;;;;;;4891965;28;37323;-80
2023/04/30 16:48:36;;;;;;;1.00;0.60;;;19.30;99.90;;;;;;4903994;29;37310;-84
2023/04/30 16:51:03;;;;;;;0.82;0.60;;;19.20;99.90;;;;;;4897024;29;37878;-81
2023/04/30 16:53:30;;;;;;;1.10;1.00;;;19.20;99.90;;;;;;4903760;29;40417;-83
2023/04/30 16:55:56;;;;;;;1.20;1.10;;;19.20;99.90;;;;;;4920210;29;37499;-83
2023/04/30 16:58:22;;;;;;;0.70;0.70;;;19.10;99.90;;;;;;4907891;29;38024;-82
2023/04/30 17:00:54;;;;;;;2.85;1.80;;;18.90;99.90;;;;;;4905690;28;36967;-84
2023/04/30 17:03:24;;;;;;;2.00;0.80;;;18.80;99.90;;;;;;4902475;29;39611;-83
2023/04/30 17:05:51;;;;;;;1.52;1.20;;;18.70;99.90;;;;;;4903292;29;38835;-80
2023/04/30 17:08:21;;;;;;;1.75;1.13;;;18.60;99.90;;;;;;4905588;29;36991;-84
2023/04/30 17:10:47;;;;;;;1.58;1.00;;;18.40;99.90;;;;;;4901745;29;37740;-84
2023/04/30 17:13:13;;;;;;;1.92;1.27;;;18.50;99.90;;;;;;4905202;29;39310;-83
2023/04/30 17:15:40;;;;;;;1.58;1.00;;;18.50;99.90;;;;;;4905165;29;38117;-85
2023/04/30 17:18:08;;;;;;;3.15;1.25;;;18.40;99.90;;;;;;4903956;29;37444;-83
2023/04/30 17:20:34;;;;;;;1.60;1.10;;;18.50;99.90;;;;;;4902463;28;38804;-84
2023/04/30 17:23:00;;;;;;;2.08;1.38;;;18.40;99.90;;;;;;4905638;29;38268;-82
2023/04/30 17:25:28;;;;;;;1.27;0.90;;;18.40;99.90;;;;;;4902521;29;37950;-82
2023/04/30 17:27:55;;;;;;;1.17;0.70;;;18.40;99.90;;;;;;4904686;29;37320;-84
2023/04/30 17:30:21;;;;;;;1.50;0.75;;;18.40;99.90;;;;;;4905717;28;36064;-82
2023/04/30 17:32:47;;;;;;;1.52;0.57;;;18.30;99.90;;;;;;4904989;29;35588;-86
2023/04/30 17:35:13;;;;;;;1.92;0.90;;;18.20;99.90;;;;;;4906165;29;38464;-86
2023/04/30 17:37:39;;;;;;;0.90;0.70;;;18.20;99.90;;;;;;4911958;29;38225;-86
2023/04/30 17:40:06;;;;;;;1.38;0.60;;;18.20;99.90;;;;;;4904463;28;37069;-86
2023/04/30 17:42:32;;;;;;;1.42;0.82;;;18.20;99.90;;;;;;4903951;29;47222;-86
2023/04/30 17:44:59;;;;;;;1.17;0.70;;;18.10;99.90;;;;;;4911460;29;39065;-86
2023/04/30 17:47:26;;;;;;;1.80;0.88;;;18.10;99.90;;;;;;4902341;29;39060;-86
2023/04/30 17:49:52;;;;;;;1.70;0.70;;;18.00;99.90;;;;;;4911149;29;36268;-84
2023/04/30 17:52:18;;;;;;;1.30;0.65;;;17.90;99.90;;;;;;4891323;29;36709;-85
2023/04/30 17:54:44;;;;;;;1.25;0.63;;;17.90;99.90;;;;;;4896528;29;38619;-86
2023/04/30 17:57:10;;;;;;;3.88;0.80;;;17.90;99.90;;;;;;4915387;28;37014;-85
2023/04/30 17:59:38;;;;;;;1.83;0.90;;;17.80;99.90;;;;;;4900494;29;37219;-77
2023/04/30 18:02:04;;;;;;;1.45;1.13;;;17.80;99.90;;;;;;4902528;29;37944;-81
2023/04/30 18:04:30;;;;;;;3.47;0.82;;;17.60;99.90;;;;;;4902492;29;38137;-80
2023/04/30 18:06:56;;;;;;;2.95;0.93;;;17.50;99.90;;;;;;4905775;29;37030;-80
2023/04/30 18:09:23;;;;;;;2.13;1.10;;;17.40;99.90;;;;;;4900387;29;36219;-79
2023/04/30 18:11:49;;;;;;;1.75;0.80;;;17.30;99.90;;;;;;4896660;28;39337;-79
2023/04/30 18:14:15;;;;;;;2.65;0.70;;;17.20;99.90;;;;;;4912445;28;39033;-86
2023/04/30 18:16:41;;;;;;;1.98;0.80;;;17.10;99.90;;;;;;4907718;29;40431;-86
2023/04/30 18:19:07;;;;;;;0.82;0.70;;;17.00;99.90;;;;;;4907664;28;38363;-85
2023/04/30 18:21:34;;;;;;;2.03;0.60;;;17.00;99.90;;;;;;4899501;29;38789;-79
2023/04/30 18:24:00;;;;;;;2.85;0.73;;;16.90;99.90;;;;;;4903470;29;37497;-86
2023/04/30 18:26:26;;;;;;;1.48;0.50;;;16.80;99.90;;;;;;4895590;29;47593;-86
2023/04/30 18:28:52;;;;;;;1.52;0.70;;;16.70;99.90;;;;;;4903935;29;36147;-84
2023/04/30 18:31:19;;;;;;;0.85;0.60;;;16.70;99.90;;;;;;4905837;29;40457;-85
2023/04/30 18:33:45;;;;;;;0.65;0.60;;;16.60;99.90;;;;;;4906937;29;37675;-85
2023/04/30 18:36:12;;;;;;;0.88;0.50;;;16.50;99.90;;;;;;4906867;29;36858;-83
2023/04/30 18:38:38;;;;;;;1.40;0.73;;;16.40;99.90;;;;;;4911132;29;38897;-83
2023/04/30 18:41:06;;;;;;;3.15;0.80;;;16.30;99.90;;;;;;4910559;28;38898;-83
2023/04/30 18:43:32;;;;;;;1.92;0.73;;;16.20;99.90;;;;;;4904827;29;37322;-84
2023/04/30 18:45:58;;;;;;;1.98;0.77;;;16.10;99.90;;;;;;4891134;29;37452;-84
2023/04/30 18:48:24;;;;;;;0.82;0.55;;;16.00;99.90;;;;;;4894046;29;36439;-88
2023/04/30 18:50:50;;;;;;;0.82;0.73;;;15.90;99.90;;;;;;4901176;29;39417;-88
2023/04/30 18:53:17;;;;;;;1.08;0.70;;;15.80;99.90;;;;;;4901768;29;37827;-88
2023/04/30 18:55:44;;;;;;;1.35;0.68;;;15.70;99.90;;;;;;4904231;29;36968;-87
2023/04/30 18:58:10;;;;;;;1.98;0.70;;;15.60;99.90;;;;;;4901800;29;36379;-88
2023/04/30 19:00:36;;;;;;;2.85;0.60;;;15.50;99.90;;;;;;4903418;29;39292;-87
2023/04/30 19:03:02;;;;;;;0.82;0.50;;;15.40;99.90;;;;;;4898751;29;37933;-86
2023/04/30 19:05:28;;;;;;;1.23;0.77;;;15.30;99.90;;;;;;4904140;29;36903;-87
2023/04/30 19:07:54;;;;;;;2.00;0.80;;;15.30;99.90;;;;;;4900101;29;37237;-88
2023/04/30 19:10:20;;;;;;;2.63;0.82;;;15.30;99.90;;;;;;4904057;28;38892;-88
2023/04/30 19:12:47;;;;;;;0.60;0.60;;;15.20;99.90;;;;;;4898964;29;38551;-88
2023/04/30 19:15:14;;;;;;;2.00;0.90;;;15.30;99.90;;;;;;4904569;29;37724;-89
2023/04/30 19:17:41;;;;;;;2.20;1.15;;;15.20;99.90;;;;;;4906912;29;36859;-88
2023/04/30 19:20:07;;;;;;;1.52;1.17;;;15.20;99.90;;;;;;4905442;29;38995;-86
2023/04/30 19:22:34;;;;;;;1.88;1.33;;;15.10;99.90;;;;;;4908532;29;38580;-88
2023/04/30 19:25:01;;;;;;;1.67;0.98;;;15.10;99.90;;;;;;4910016;29;36946;-86
2023/04/30 19:27:27;;;;;;;3.20;1.27;;;15.00;99.90;;;;;;4908144;29;36063;-87
2023/04/30 19:29:56;;;;;;;2.03;1.00;;;14.90;99.90;;;;;;4905740;28;38600;-88
2023/04/30 19:32:22;;;;;;;3.22;1.30;;;14.70;99.90;;;;;;4908088;28;38667;-87
2023/04/30 19:34:48;;;;;;;3.25;1.30;;;14.70;99.90;;;;;;4911489;29;37851;-90
2023/04/30 19:37:15;;;;;;;1.67;1.10;;;14.60;99.90;;;;;;4907305;28;37397;-89
2023/04/30 19:39:41;;;;;;;2.75;1.35;;;14.60;99.90;;;;;;4909257;29;37952;-88
2023/04/30 19:42:08;;;;;;;1.58;0.90;;;14.50;99.90;;;;;;4904333;29;37887;-89
2023/04/30 19:44:34;;;;;;;2.85;1.02;;;14.40;99.90;;;;;;4912104;29;37025;-88
2023/04/30 19:47:01;;;;;;;1.92;1.30;;;14.30;99.90;;;;;;4903303;29;36286;-88
2023/04/30 19:49:27;;;;;;;1.42;1.13;;;14.10;99.90;;;;;;4908325;29;39931;-88
2023/04/30 19:51:53;;;;;;;2.22;1.40;;;14.00;99.90;;;;;;4906163;29;37347;-88
2023/04/30 19:54:20;;;;;;;1.63;1.33;;;14.00;99.90;;;;;;4900634;29;37438;-88